createdAt,value
2024-04-12T00:02:09.615Z,99427.03
2024-04-12T00:04:37.169Z,99422.41
2024-04-12T00:07:06.867Z,99427.16
2024-04-12T00:09:33.834Z,99418.47
2024-04-12T00:12:02.369Z,99425.91
2024-04-12T00:14:29.566Z,99422.91
2024-04-12T00:16:57.831Z,99426.88
2024-04-12T00:19:25.185Z,99431.63
2024-04-12T00:21:54.516Z,99426.06
2024-04-12T00:24:26.274Z,99432.59
2024-04-12T00:26:57.213Z,99433.53
2024-04-12T00:29:28.047Z,99428.16
2024-04-12T00:32:06.779Z,99434.00
2024-04-12T00:34:39.875Z,99438.56
2024-04-12T00:37:08.835Z,99439.66
2024-04-12T00:39:40.409Z,99439.50
2024-04-12T00:42:08.988Z,99446.31
2024-04-12T00:44:40.950Z,99441.41
2024-04-12T00:47:17.643Z,99440.13
2024-04-12T00:49:51.949Z,99443.25
2024-04-12T00:52:24.751Z,99439.06
2024-04-12T00:55:05.205Z,99437.75
2024-04-12T00:57:38.101Z,99434.56
2024-04-12T01:00:11.880Z,99433.63
2024-04-12T01:02:43.405Z,99428.88
2024-04-12T01:05:19.151Z,99432.38
2024-04-12T01:07:51.832Z,99427.28
2024-04-12T01:10:27.209Z,99431.00
2024-04-12T01:12:59.323Z,99435.34
2024-04-12T01:15:34.529Z,99426.94
2024-04-12T01:18:06.605Z,99434.13
2024-04-12T01:20:37.101Z,99422.22
2024-04-12T01:23:05.927Z,99433.56
2024-04-12T01:25:35.840Z,99428.63
2024-04-12T01:28:05.929Z,99427.94
2024-04-12T01:30:32.919Z,99418.91
2024-04-12T01:33:00.578Z,99428.06
2024-04-12T01:35:27.851Z,99421.28
2024-04-12T01:37:54.801Z,99427.66
2024-04-12T01:40:24.698Z,99424.81
2024-04-12T01:42:53.477Z,99423.09
2024-04-12T01:45:28.941Z,99427.00
2024-04-12T01:47:56.701Z,99423.69
2024-04-12T01:50:24.201Z,99433.53
2024-04-12T01:52:55.657Z,99428.75
2024-04-12T01:55:24.496Z,99433.66
2024-04-12T01:57:52.854Z,99429.97
2024-04-12T02:00:22.050Z,99433.88
2024-04-12T02:02:53.389Z,99431.47
2024-04-12T02:05:34.297Z,99428.00
2024-04-12T02:08:12.093Z,99440.34
2024-04-12T02:10:43.318Z,99431.13
2024-04-12T02:13:21.968Z,99440.16
2024-04-12T02:15:53.655Z,99440.34
2024-04-12T02:18:25.286Z,99434.53
2024-04-12T02:20:54.548Z,99431.84
2024-04-12T02:23:23.266Z,99442.31
2024-04-12T02:25:51.303Z,99444.50
2024-04-12T02:28:19.145Z,99453.66
2024-04-12T02:30:47.657Z,99454.97
2024-04-12T02:33:19.297Z,99458.66
2024-04-12T02:35:47.125Z,99451.38
2024-04-12T02:38:22.290Z,99457.06
2024-04-12T02:40:49.994Z,99453.81
2024-04-12T02:43:17.737Z,99451.84
2024-04-12T02:45:51.917Z,99453.16
2024-04-12T02:48:21.593Z,99449.59
2024-04-12T02:50:55.399Z,99439.25
2024-04-12T02:53:24.503Z,99452.63
2024-04-12T02:56:02.337Z,99452.56
2024-04-12T02:58:41.471Z,99451.69
2024-04-12T03:01:10.029Z,99448.00
2024-04-12T03:03:42.987Z,99450.69
2024-04-12T03:06:11.472Z,99456.63
2024-04-12T03:08:45.381Z,99460.91
2024-04-12T03:11:24.273Z,99457.91
2024-04-12T03:14:00.694Z,99462.22
2024-04-12T03:16:28.099Z,99454.75
2024-04-12T03:18:55.597Z,99450.09
2024-04-12T03:21:25.692Z,99451.19
2024-04-12T03:23:52.899Z,99453.88
2024-04-12T03:26:23.337Z,99466.81
2024-04-12T03:28:59.661Z,99462.53
2024-04-12T03:31:28.239Z,99456.75
2024-04-12T03:33:56.651Z,99454.84
2024-04-12T03:36:28.337Z,99460.63
2024-04-12T03:39:17.819Z,99462.63
2024-04-12T03:41:45.698Z,99467.91
2024-04-12T03:44:12.601Z,99472.66
2024-04-12T03:46:41.921Z,99472.34
2024-04-12T03:49:11.148Z,99475.25
2024-04-12T03:51:45.283Z,99474.44
2024-04-12T03:54:13.735Z,99468.88
2024-04-12T03:56:40.417Z,99475.44
2024-04-12T03:59:07.087Z,99478.72
2024-04-12T04:01:38.104Z,99473.88
2024-04-12T04:04:11.689Z,99478.81
2024-04-12T04:06:38.708Z,99483.00
2024-04-12T04:09:12.774Z,99483.31
2024-04-12T04:11:46.909Z,99480.63
2024-04-12T04:14:15.116Z,99480.81
2024-04-12T04:16:42.580Z,99477.03
2024-04-12T04:19:18.619Z,99476.25
2024-04-12T04:21:47.279Z,99474.06
2024-04-12T04:24:13.966Z,99474.19
2024-04-12T04:26:41.979Z,99464.22
2024-04-12T04:29:10.879Z,99463.13
2024-04-12T04:31:49.074Z,99468.41
2024-04-12T04:34:16.893Z,99472.09
2024-04-12T04:36:51.203Z,99473.75
2024-04-12T04:39:19.103Z,99472.16
2024-04-12T04:41:51.401Z,99470.59
2024-04-12T04:44:18.626Z,99473.28
2024-04-12T04:46:50.366Z,99466.81
2024-04-12T04:49:22.424Z,99458.16
2024-04-12T04:51:50.273Z,99456.47
2024-04-12T04:54:21.257Z,99455.38
2024-04-12T04:56:48.292Z,99455.78
2024-04-12T04:59:30.058Z,99465.81
2024-04-12T05:01:57.948Z,99456.25
2024-04-12T05:04:26.696Z,99454.56
2024-04-12T05:06:54.219Z,99451.00
2024-04-12T05:09:21.436Z,99450.28
2024-04-12T05:11:52.317Z,99446.31
2024-04-12T05:14:35.522Z,99452.56
2024-04-12T05:17:08.716Z,99445.56
2024-04-12T05:19:42.538Z,99447.72
2024-04-12T05:22:11.974Z,99450.53
2024-04-12T05:24:41.660Z,99447.81
2024-04-12T05:27:13.257Z,99452.13
2024-04-12T05:29:42.262Z,99449.81
2024-04-12T05:32:11.604Z,99438.66
2024-04-12T05:34:38.816Z,99441.13
2024-04-12T05:37:05.727Z,99446.72
2024-04-12T05:39:37.676Z,99448.00
2024-04-12T05:42:08.694Z,99452.94
2024-04-12T05:44:36.352Z,99449.63
2024-04-12T05:47:11.530Z,99445.84
2024-04-12T05:49:38.270Z,99441.75
2024-04-12T05:52:08.438Z,99439.38
2024-04-12T05:54:46.617Z,99424.50
2024-04-12T05:57:13.967Z,99434.00
2024-04-12T05:59:43.842Z,99431.34
2024-04-12T06:02:11.565Z,99429.44
2024-04-12T06:04:38.302Z,99437.69
2024-04-12T06:07:14.783Z,99432.59
2024-04-12T06:09:41.939Z,99424.84
2024-04-12T06:12:09.289Z,99422.28
2024-04-12T06:14:40.059Z,99425.59
2024-04-12T06:17:10.977Z,99419.88
2024-04-12T06:19:39.783Z,99412.22
2024-04-12T06:22:14.782Z,99421.59
2024-04-12T06:24:44.290Z,99430.75
2024-04-12T06:27:11.211Z,99423.56
2024-04-12T06:29:39.237Z,99420.34
2024-04-12T06:32:09.496Z,99420.78
2024-04-12T06:34:39.553Z,99421.78
2024-04-12T06:37:10.244Z,99421.88
2024-04-12T06:39:38.361Z,99428.97
2024-04-12T06:42:05.975Z,99428.06
2024-04-12T06:44:33.183Z,99433.13
2024-04-12T06:47:00.059Z,99426.31
2024-04-12T06:49:30.110Z,99435.81
2024-04-12T06:52:11.035Z,99434.88
2024-04-12T06:54:44.249Z,99442.31
2024-04-12T06:57:19.546Z,99438.63
2024-04-12T06:59:55.215Z,99440.09
2024-04-12T07:02:26.238Z,99444.28
2024-04-12T07:04:58.365Z,99446.22
2024-04-12T07:07:26.182Z,99447.34
2024-04-12T07:09:59.559Z,99446.88
2024-04-12T07:12:32.839Z,99449.34
2024-04-12T07:15:00.315Z,99461.75
2024-04-12T07:17:27.867Z,99458.13
2024-04-12T07:19:58.593Z,99464.41
2024-04-12T07:22:29.750Z,99462.00
2024-04-12T07:24:58.434Z,99458.81
2024-04-12T07:27:29.527Z,99458.44
2024-04-12T07:29:59.659Z,99461.59
2024-04-12T07:32:27.322Z,99447.44
2024-04-12T07:34:54.458Z,99451.69
2024-04-12T07:37:37.613Z,99442.50
2024-04-12T07:40:19.528Z,99445.78
2024-04-12T07:42:47.697Z,99430.75
2024-04-12T07:45:24.908Z,99428.03
2024-04-12T07:48:01.806Z,99427.94
2024-04-12T07:50:30.609Z,99415.66
2024-04-12T07:52:59.980Z,99414.91
2024-04-12T07:55:26.716Z,99406.47
2024-04-12T07:57:56.263Z,99411.25
2024-04-12T08:00:49.229Z,99420.94
2024-04-12T08:03:18.858Z,99418.00
2024-04-12T08:06:05.115Z,99405.88
2024-04-12T08:08:45.034Z,99407.41
2024-04-12T08:11:37.335Z,99409.22
2024-04-12T08:14:10.038Z,99405.19
2024-04-12T08:16:38.423Z,99408.53
2024-04-12T08:19:14.116Z,99414.16
2024-04-12T08:21:44.833Z,99421.19
2024-04-12T08:24:16.450Z,99411.44
2024-04-12T08:26:49.590Z,99422.91
2024-04-12T08:29:30.240Z,99420.06
2024-04-12T08:32:13.063Z,99425.56
2024-04-12T08:34:46.979Z,99427.63
2024-04-12T08:37:14.897Z,99426.50
2024-04-12T08:39:46.176Z,99423.56
2024-04-12T08:42:15.970Z,99428.28
2024-04-12T08:44:44.943Z,99422.13
2024-04-12T08:47:28.490Z,99413.72
2024-04-12T08:50:05.050Z,99414.66
2024-04-12T08:52:44.941Z,99427.19
2024-04-12T08:55:18.688Z,99427.25
2024-04-12T08:57:49.385Z,99429.69
2024-04-12T09:00:26.575Z,99420.84
2024-04-12T09:03:04.677Z,99422.06
2024-04-12T09:05:37.190Z,99415.75
2024-04-12T09:08:08.278Z,99410.75
2024-04-12T09:10:37.417Z,99413.09
2024-04-12T09:13:10.679Z,99404.13
2024-04-12T09:15:40.234Z,99402.63
2024-04-12T09:18:15.804Z,99392.59
2024-04-12T09:20:46.477Z,99399.75
2024-04-12T09:23:18.364Z,99397.47
2024-04-12T09:25:56.247Z,99405.03
2024-04-12T09:28:28.553Z,99392.94
2024-04-12T09:31:31.363Z,99395.34
2024-04-12T09:34:18.942Z,99394.63
2024-04-12T09:37:03.701Z,99394.38
2024-04-12T09:39:59.311Z,99391.66
2024-04-12T09:42:29.838Z,99393.28
2024-04-12T09:45:10.811Z,99386.25
2024-04-12T09:48:00.308Z,99391.81
2024-04-12T09:50:46.852Z,99386.06
2024-04-12T09:53:32.371Z,99384.97
2024-04-12T09:56:19.320Z,99388.56
2024-04-12T09:59:09.480Z,99390.53
2024-04-12T10:01:56.240Z,99392.53
2024-04-12T10:04:43.370Z,99397.63
2024-04-12T10:07:29.934Z,99392.97
2024-04-12T10:10:15.731Z,99393.75
2024-04-12T10:13:01.145Z,99382.81
2024-04-12T10:15:46.864Z,99385.22
2024-04-12T10:18:32.796Z,99391.13
2024-04-12T10:21:27.757Z,99386.81
2024-04-12T10:24:22.433Z,99382.53
2024-04-12T10:27:07.742Z,99382.53
2024-04-12T10:29:53.266Z,99383.31
2024-04-12T10:32:45.272Z,99383.69
2024-04-12T10:35:33.096Z,99377.03
2024-04-12T10:37:59.759Z,99384.47
2024-04-12T10:40:29.646Z,99375.84
2024-04-12T10:42:57.571Z,99374.66
2024-04-12T10:45:27.325Z,99360.53
2024-04-12T10:47:58.138Z,99367.22
2024-04-12T10:50:25.318Z,99366.41
2024-04-12T10:52:52.729Z,99364.03
2024-04-12T10:55:22.626Z,99366.75
2024-04-12T10:57:49.960Z,99358.09
2024-04-12T11:00:18.858Z,99354.94
2024-04-12T11:02:58.249Z,99361.59
2024-04-12T11:05:36.445Z,99348.59
2024-04-12T11:08:12.690Z,99348.09
2024-04-12T11:10:58.873Z,99343.31
2024-04-12T11:13:37.097Z,99345.59
2024-04-12T11:16:23.200Z,99349.81
2024-04-12T11:19:11.920Z,99342.22
2024-04-12T11:21:58.482Z,99334.59
2024-04-12T11:24:44.276Z,99341.19
2024-04-12T11:27:29.828Z,99335.19
2024-04-12T11:52:00.727Z,99306.41
2024-04-12T11:54:31.087Z,99297.66
2024-04-12T11:57:00.809Z,99299.94
2024-04-12T11:59:31.719Z,99302.66
2024-04-12T12:02:03.178Z,99292.81
2024-04-12T12:04:30.712Z,99288.38
2024-04-12T12:07:00.977Z,99282.78
2024-04-12T12:09:32.855Z,99285.81
2024-04-12T12:12:02.145Z,99287.81
2024-04-12T12:14:29.152Z,99284.88
2024-04-12T12:16:58.688Z,99286.38
2024-04-12T12:19:25.841Z,99296.00
2024-04-12T12:21:52.871Z,99293.56
2024-04-12T12:24:21.112Z,99294.22
2024-04-12T12:26:51.531Z,99290.28
2024-04-12T12:29:19.977Z,99290.19
2024-04-12T12:31:48.098Z,99282.63
2024-04-12T12:34:15.856Z,99271.88
2024-04-12T12:36:42.915Z,99269.75
2024-04-12T12:39:13.360Z,99266.41
2024-04-12T12:41:46.932Z,99261.63
2024-04-12T12:44:19.481Z,99261.66
2024-04-12T12:46:46.850Z,99255.38
2024-04-12T12:49:13.778Z,99243.94
2024-04-12T12:51:41.645Z,99236.47
2024-04-12T12:54:09.304Z,99233.28
2024-04-12T12:56:36.688Z,99235.34
2024-04-12T12:59:04.173Z,99228.19
2024-04-12T13:01:36.293Z,99226.44
2024-04-12T13:04:08.626Z,99231.06
2024-04-12T13:06:36.214Z,99230.84
2024-04-12T13:09:10.344Z,99226.78
2024-04-12T13:11:37.827Z,99217.97
2024-04-12T13:14:10.918Z,99220.75
2024-04-12T13:16:43.187Z,99213.59
2024-04-12T13:19:17.077Z,99210.88
2024-04-12T13:21:44.257Z,99218.25
2024-04-12T13:24:15.086Z,99210.59
2024-04-12T13:26:51.861Z,99209.34
2024-04-12T13:29:19.347Z,99211.16
2024-04-12T13:31:51.687Z,99194.59
2024-04-12T13:34:19.993Z,99194.59
2024-04-12T13:36:48.936Z,99188.56
2024-04-12T13:39:16.443Z,99182.00
2024-04-12T13:41:46.616Z,99185.63
2024-04-12T13:44:26.711Z,99180.94
2024-04-12T13:47:13.215Z,99186.81
2024-04-12T13:49:58.737Z,99184.09
2024-04-12T13:52:26.607Z,99174.78
2024-04-12T13:54:57.330Z,99169.84
2024-04-12T13:57:26.061Z,99173.59
2024-04-12T13:59:53.524Z,99166.44
2024-04-12T14:02:20.551Z,99163.03
2024-04-12T14:04:47.775Z,99162.31
2024-04-12T14:07:16.426Z,99161.13
2024-04-12T14:09:43.200Z,99161.47
2024-04-12T14:12:11.443Z,99151.38
2024-04-12T14:14:38.459Z,99156.94
2024-04-12T14:17:06.786Z,99164.75
2024-04-12T14:19:33.604Z,99161.81
2024-04-12T14:22:00.519Z,99162.53
2024-04-12T14:24:46.257Z,99160.69
2024-04-12T14:27:14.144Z,99159.28
2024-04-12T14:29:41.100Z,99150.94
2024-04-12T14:32:08.334Z,99147.38
2024-04-12T14:34:37.006Z,99145.19
2024-04-12T14:37:05.316Z,99148.25
2024-04-12T14:39:34.098Z,99140.09
2024-04-12T14:42:03.076Z,99139.69
2024-04-12T14:44:40.444Z,99143.09
2024-04-12T14:47:08.550Z,99137.44
2024-04-12T14:49:35.519Z,99135.16
2024-04-12T14:52:02.838Z,99122.41
2024-04-12T14:54:31.770Z,99126.41
2024-04-12T14:56:58.823Z,99119.31
2024-04-12T14:59:25.730Z,99120.50
2024-04-12T15:01:52.549Z,99114.13
2024-04-12T15:04:37.842Z,99117.75
2024-04-12T15:07:23.549Z,99112.38
2024-04-12T15:10:08.889Z,99114.00
2024-04-12T15:12:54.514Z,99106.16
2024-04-12T15:15:40.192Z,99106.31
2024-04-12T15:18:26.292Z,99108.31
2024-04-12T15:21:12.172Z,99100.22
2024-04-12T15:23:57.626Z,99099.94
2024-04-12T15:26:42.892Z,99102.63
2024-04-12T15:29:28.354Z,99097.00
2024-04-12T15:32:14.015Z,99094.56
2024-04-12T15:34:59.426Z,99091.38
2024-04-12T15:37:44.625Z,99095.22
2024-04-12T15:40:30.108Z,99088.28
2024-04-12T15:43:15.356Z,99087.91
2024-04-12T15:46:01.030Z,99085.66
2024-04-12T15:48:30.486Z,99090.38
2024-04-12T15:50:57.986Z,99086.75
2024-04-12T15:53:27.227Z,99086.06
2024-04-12T15:55:55.320Z,99082.94
2024-04-12T15:58:44.145Z,99080.00
2024-04-12T16:01:30.065Z,99080.50
2024-04-12T16:04:16.230Z,99076.25
2024-04-12T16:07:02.030Z,99074.59
2024-04-12T16:09:47.502Z,99073.84
2024-04-12T16:12:14.483Z,99069.22
2024-04-12T16:14:41.250Z,99074.03
2024-04-12T16:17:12.015Z,99073.84
2024-04-12T16:19:47.877Z,99079.13
2024-04-12T16:22:14.729Z,99065.69
2024-04-12T16:24:41.629Z,99071.69
2024-04-12T16:27:08.924Z,99072.88
2024-04-12T16:29:38.699Z,99073.72
2024-04-12T16:32:05.845Z,99072.16
2024-04-12T16:34:32.693Z,99068.78
2024-04-12T16:37:05.117Z,99070.47
2024-04-12T16:39:32.191Z,99067.41
2024-04-12T16:41:58.920Z,99069.06
2024-04-12T16:44:27.591Z,99064.06
2024-04-12T16:46:54.491Z,99065.59
2024-04-12T16:49:21.305Z,99070.44
2024-04-12T16:51:51.129Z,99072.47
2024-04-12T16:54:18.007Z,99068.59
2024-04-12T16:56:44.811Z,99074.47
2024-04-12T16:59:12.467Z,99070.56
2024-04-12T17:01:39.234Z,99079.59
2024-04-12T17:04:06.198Z,99074.22
2024-04-12T17:06:33.076Z,99068.34
2024-04-12T17:08:59.811Z,99075.81
2024-04-12T17:11:27.446Z,99071.53
2024-04-12T17:13:54.342Z,99070.75
2024-04-12T17:16:21.863Z,99069.25
2024-04-12T17:18:49.238Z,99075.59
2024-04-12T17:21:16.235Z,99070.19
2024-04-12T17:23:43.157Z,99071.84
2024-04-12T17:26:09.988Z,99070.69
2024-04-12T17:28:39.420Z,99066.03
2024-04-12T17:31:09.554Z,99064.97
2024-04-12T17:33:36.623Z,99067.03
2024-04-12T17:36:07.820Z,99072.66
2024-04-12T17:38:37.420Z,99071.63
2024-04-12T17:41:04.445Z,99075.31
2024-04-12T17:43:31.431Z,99072.66
2024-04-12T17:45:58.601Z,99066.47
2024-04-12T17:48:25.594Z,99071.28
2024-04-12T17:50:53.589Z,99064.75
2024-04-12T17:53:20.592Z,99058.59
2024-04-12T17:55:47.313Z,99067.75
2024-04-12T17:58:14.088Z,99074.53
2024-04-12T18:00:41.052Z,99074.25
2024-04-12T18:03:09.843Z,99075.94
2024-04-12T18:05:39.064Z,99073.69
2024-04-12T18:08:06.748Z,99078.88
2024-04-12T18:10:33.643Z,99081.28
2024-04-12T18:13:00.972Z,99084.06
2024-04-12T18:15:29.087Z,99073.97
2024-04-12T18:17:55.950Z,99073.25
2024-04-12T18:20:25.974Z,99080.44
2024-04-12T18:22:53.819Z,99086.03
2024-04-12T18:25:20.922Z,99084.94
2024-04-12T18:27:47.788Z,99086.56
2024-04-12T18:30:14.640Z,99098.72
2024-04-12T18:32:42.696Z,99094.03
2024-04-12T18:35:14.017Z,99102.66
2024-04-12T18:38:01.440Z,99090.13
2024-04-12T18:40:46.832Z,99097.94
2024-04-12T18:43:31.927Z,99097.88
2024-04-12T18:45:59.062Z,99104.03
2024-04-12T18:48:28.076Z,99105.94
2024-04-12T18:50:55.011Z,99113.25
2024-04-12T18:53:23.206Z,99103.84
2024-04-12T18:55:50.226Z,99117.03
2024-04-12T18:58:16.921Z,99120.09
2024-04-12T19:00:49.879Z,99119.22
2024-04-12T19:03:16.784Z,99129.97
2024-04-12T19:05:45.689Z,99128.75
2024-04-12T19:08:12.893Z,99123.91
2024-04-12T19:10:41.312Z,99112.53
2024-04-12T19:13:08.930Z,99117.19
2024-04-12T19:15:42.115Z,99122.59
2024-04-12T19:18:10.984Z,99120.94
2024-04-12T19:20:44.378Z,99129.13
2024-04-12T19:23:12.292Z,99134.13
2024-04-12T19:25:39.477Z,99135.63
2024-04-12T19:28:06.434Z,99134.81
2024-04-12T19:30:37.730Z,99131.78
2024-04-12T19:33:04.821Z,99136.22
2024-04-12T19:35:31.713Z,99147.56
2024-04-12T19:37:58.425Z,99146.00
2024-04-12T19:40:25.076Z,99145.28
2024-04-12T19:42:51.835Z,99149.19
2024-04-12T19:45:18.542Z,99147.66
2024-04-12T19:47:45.366Z,99148.41
2024-04-12T19:50:12.262Z,99151.88
2024-04-12T19:52:47.337Z,99155.31
2024-04-12T19:55:18.033Z,99164.19
2024-04-12T19:57:44.782Z,99161.84
2024-04-12T20:00:14.082Z,99159.72
2024-04-12T20:02:41.015Z,99167.13
2024-04-12T20:05:07.770Z,99165.34
2024-04-12T20:07:34.565Z,99164.63
2024-04-12T20:10:01.295Z,99163.84
2024-04-12T20:12:27.988Z,99164.28
2024-04-12T20:14:56.393Z,99163.56
2024-04-12T20:17:23.610Z,99162.47
2024-04-12T20:19:53.638Z,99168.94
2024-04-12T20:22:23.441Z,99168.34
2024-04-12T20:24:50.583Z,99163.59
2024-04-12T20:27:18.233Z,99169.31
2024-04-12T20:29:56.202Z,99160.78
2024-04-12T20:32:25.710Z,99165.38
2024-04-12T20:35:15.770Z,99171.25
2024-04-12T20:37:43.919Z,99164.84
2024-04-12T20:40:10.771Z,99175.50
2024-04-12T20:42:37.610Z,99171.84
2024-04-12T20:45:04.924Z,99171.28
2024-04-12T20:47:31.632Z,99173.56
2024-04-12T20:49:58.435Z,99170.44
2024-04-12T20:52:25.347Z,99173.28
2024-04-12T20:54:52.033Z,99168.13
2024-04-12T20:57:19.683Z,99173.28
2024-04-12T20:59:52.496Z,99171.41
2024-04-12T21:02:19.336Z,99167.69
2024-04-12T21:04:51.244Z,99174.03
2024-04-12T21:07:18.521Z,99172.28
2024-04-12T21:09:45.385Z,99173.28
2024-04-12T21:12:12.219Z,99177.41
2024-04-12T21:14:41.411Z,99170.75
2024-04-12T21:17:09.713Z,99175.28
2024-04-12T21:19:36.501Z,99171.78
2024-04-12T21:22:03.242Z,99178.69
2024-04-12T21:24:31.319Z,99174.41
2024-04-12T21:26:58.374Z,99177.31
2024-04-12T21:29:25.025Z,99173.28
2024-04-12T21:31:51.716Z,99174.34
2024-04-12T21:34:18.790Z,99165.66
2024-04-12T21:36:45.453Z,99169.00
2024-04-12T21:39:12.333Z,99170.84
2024-04-12T21:41:39.208Z,99167.63
2024-04-12T21:44:09.814Z,99170.56
2024-04-12T21:46:37.011Z,99169.34
2024-04-12T21:49:06.215Z,99164.97
2024-04-12T21:51:33.133Z,99153.25
2024-04-12T21:54:01.849Z,99155.59
2024-04-12T21:56:28.930Z,99156.50
2024-04-12T21:58:55.617Z,99157.72
2024-04-12T22:01:22.302Z,99157.78
2024-04-12T22:03:49.406Z,99163.41
2024-04-12T22:06:16.506Z,99162.72
2024-04-12T22:08:44.166Z,99161.22
2024-04-12T22:11:11.661Z,99168.56
2024-04-12T22:13:39.365Z,99168.50
2024-04-12T22:16:10.648Z,99163.25
2024-04-12T22:18:39.930Z,99164.13
2024-04-12T22:21:15.843Z,99164.91
2024-04-12T22:23:45.634Z,99167.25
2024-04-12T22:26:17.693Z,99169.19
2024-04-12T22:28:48.761Z,99170.94
2024-04-12T22:31:17.663Z,99175.72
2024-04-12T22:33:46.074Z,99169.41
2024-04-12T22:36:13.489Z,99165.44
2024-04-12T22:38:40.365Z,99162.88
2024-04-12T22:41:08.000Z,99163.81
2024-04-12T22:43:34.830Z,99168.47
2024-04-12T22:46:01.482Z,99159.25
2024-04-12T22:48:28.480Z,99161.44
2024-04-12T22:50:55.461Z,99160.75
2024-04-12T22:53:22.833Z,99159.63
2024-04-12T22:55:50.433Z,99161.78
2024-04-12T22:58:17.225Z,99155.16
2024-04-12T23:00:44.567Z,99153.09
2024-04-12T23:03:11.561Z,99147.59
2024-04-12T23:05:38.408Z,99154.81
2024-04-12T23:08:05.374Z,99147.38
2024-04-12T23:10:33.803Z,99149.53
2024-04-12T23:13:00.722Z,99152.25
2024-04-12T23:15:27.710Z,99143.31
2024-04-12T23:17:54.835Z,99145.94
2024-04-12T23:20:23.712Z,99139.63
2024-04-12T23:22:50.488Z,99143.44
2024-04-12T23:25:17.466Z,99143.22
2024-04-12T23:27:44.333Z,99139.16
2024-04-12T23:30:11.332Z,99136.66
2024-04-12T23:32:38.448Z,99137.56
2024-04-12T23:35:05.793Z,99135.75
2024-04-12T23:37:34.316Z,99126.25
2024-04-12T23:40:01.196Z,99133.03
2024-04-12T23:42:28.841Z,99132.69
2024-04-12T23:44:55.656Z,99128.50
2024-04-12T23:47:22.683Z,99125.78
2024-04-12T23:49:49.568Z,99122.91
2024-04-12T23:52:16.280Z,99118.31
2024-04-12T23:54:42.954Z,99115.50
2024-04-12T23:57:09.870Z,99118.22
2024-04-12T23:59:36.584Z,99118.66
